Disclaimer

Please do not use the information listed here in-flight or in-navigation, as they are not provided to us by the airports but are provided by volunteers, so they might be outdated.

Search


Regions


Airport information page

Radio informations:
Tower (TWR) - 118.1 MHz
Automatic Terminal Information Service (ATIS) - 112.7 MHz

Airport informations:
Latitude: 42° 50' 10.00" S
Longitude: 147° 30' 37.00" E
Elevation: 13 feet - 4 meters
Operating hours: N/A
Operating agency: Civil government, landing fees and diplomatic clearance may be required
Timezone: UTC+10(+11DT)
Fuel: Jet A1, without icing nhibitor.

100/130 MIL Spec, low lead, aviation gasoline (BLUE)

Runway information:
12/30 - 7385 x 148 feet< - >2251 x 45 meters

Recent METARs:
YMHB 181500Z 01005KT 9999 BKN040 14/06 Q1019
YMHB 181500Z 01005KT 9999 BKN040 14/06 Q1019
YMHB 181800Z 02005KT 9999 BKN038 12/09 Q1018

Airport on the map: